createdAt,value
2023-04-26T00:02:23.730Z,99121.69
2023-04-26T00:05:09.692Z,99139.44
2023-04-26T00:07:54.507Z,99126.31
2023-04-26T00:10:40.598Z,99162.78
2023-04-26T00:13:25.978Z,99158.31
2023-04-26T00:16:10.033Z,99140.66
2023-04-26T00:21:38.424Z,99169.19
2023-04-26T00:24:22.482Z,99090.72
2023-04-26T00:27:09.422Z,99166.81
2023-04-26T00:29:55.002Z,99165.88
2023-04-26T00:32:39.705Z,99130.03
2023-04-26T00:35:24.738Z,99123.66
2023-04-26T00:38:09.103Z,99146.00
2023-04-26T00:40:53.066Z,99167.53
2023-04-26T00:43:37.086Z,99157.38
2023-04-26T00:46:22.581Z,99166.72
2023-04-26T00:49:06.724Z,99161.66
2023-04-26T00:51:52.721Z,99152.31
2023-04-26T00:54:36.880Z,99158.78
2023-04-26T00:57:21.337Z,99164.78
2023-04-26T01:00:06.612Z,99155.25
2023-04-26T01:02:53.082Z,99153.63
2023-04-26T01:05:37.583Z,99144.34
2023-04-26T01:08:21.968Z,99155.94
2023-04-26T01:11:07.417Z,99153.56
2023-04-26T01:13:52.888Z,99151.09
2023-04-26T01:16:37.343Z,99162.84
2023-04-26T01:19:23.571Z,99163.03
2023-04-26T01:22:07.842Z,99141.69
2023-04-26T01:24:56.528Z,99115.28
2023-04-26T01:27:41.929Z,99150.28
2023-04-26T01:30:25.926Z,99142.88
2023-04-26T01:33:09.984Z,99096.09
2023-04-26T01:35:54.035Z,99139.28
2023-04-26T01:38:38.150Z,99098.19
2023-04-26T01:41:24.621Z,99105.63
2023-04-26T01:44:09.500Z,99135.41
2023-04-26T01:46:53.258Z,99110.25
2023-04-26T01:49:37.248Z,99136.13
2023-04-26T01:52:21.540Z,99115.19
2023-04-26T01:55:05.988Z,99131.78
2023-04-26T01:57:51.208Z,99134.25
2023-04-26T02:00:35.309Z,99135.00
2023-04-26T02:03:19.326Z,99133.75
2023-04-26T02:06:03.344Z,99124.63
2023-04-26T02:08:47.344Z,99136.25
2023-04-26T02:11:31.169Z,99121.16
2023-04-26T02:14:16.882Z,99128.25
2023-04-26T02:17:01.362Z,99128.25
2023-04-26T02:19:45.653Z,99128.13
2023-04-26T02:22:29.896Z,99131.53
2023-04-26T02:25:13.814Z,99132.13
2023-04-26T02:27:57.671Z,99007.97
2023-04-26T02:30:43.408Z,99139.22
2023-04-26T02:33:28.077Z,99131.81
2023-04-26T02:36:12.063Z,99141.66
2023-04-26T02:38:55.915Z,99132.41
2023-04-26T02:41:40.104Z,99118.97
2023-04-26T02:44:24.048Z,99124.19
2023-04-26T02:47:09.671Z,99116.16
2023-04-26T02:49:53.995Z,99102.22
2023-04-26T02:52:38.343Z,99132.41
2023-04-26T02:55:22.426Z,99132.06
2023-04-26T02:58:07.816Z,99130.13
2023-04-26T03:00:51.682Z,99115.47
2023-04-26T03:03:37.531Z,99122.28
2023-04-26T03:06:21.579Z,99117.81
2023-04-26T03:09:05.926Z,99124.81
2023-04-26T03:11:50.433Z,99123.84
2023-04-26T03:14:34.709Z,99121.88
2023-04-26T03:17:19.204Z,99098.22
2023-04-26T03:20:06.306Z,99084.47
2023-04-26T03:22:51.578Z,99128.13
2023-04-26T03:25:35.987Z,99127.50
2023-04-26T03:28:20.083Z,99116.59
2023-04-26T03:31:04.146Z,99119.03
2023-04-26T03:33:48.829Z,99122.53
2023-04-26T03:36:34.012Z,99131.59
2023-04-26T03:39:19.072Z,99128.41
2023-04-26T03:42:04.148Z,99130.69
2023-04-26T03:44:48.269Z,99119.16
2023-04-26T03:47:33.030Z,99129.13
2023-04-26T03:50:17.098Z,99096.75
2023-04-26T03:53:03.925Z,99124.22
2023-04-26T03:55:47.914Z,99124.75
2023-04-26T03:58:32.113Z,99123.63
2023-04-26T04:01:15.950Z,99130.25
2023-04-26T04:04:00.786Z,99127.16
2023-04-26T04:06:46.327Z,99110.47
2023-04-26T04:09:31.629Z,99128.28
2023-04-26T04:12:15.415Z,99134.34
2023-04-26T04:15:00.861Z,99142.03
2023-04-26T04:17:51.015Z,99145.13
2023-04-26T04:20:35.105Z,99142.22
2023-04-26T04:23:19.278Z,99136.66
2023-04-26T04:26:04.610Z,99128.06
2023-04-26T04:28:49.092Z,99146.44
2023-04-26T04:31:34.010Z,99148.97
2023-04-26T04:34:18.067Z,99137.56
2023-04-26T04:37:04.343Z,99144.22
2023-04-26T04:39:48.419Z,99140.88
2023-04-26T04:42:35.045Z,99146.88
2023-04-26T04:45:22.182Z,99138.94
2023-04-26T04:48:09.198Z,99145.75
2023-04-26T04:50:53.652Z,99152.25
2023-04-26T04:53:38.171Z,99152.03
2023-04-26T04:56:22.693Z,99150.47
2023-04-26T04:59:08.718Z,99153.03
2023-04-26T05:01:53.653Z,99154.03
2023-04-26T05:04:38.482Z,99123.34
2023-04-26T05:07:24.436Z,99145.31
2023-04-26T05:10:11.356Z,99145.59
2023-04-26T05:12:55.513Z,99144.88
2023-04-26T05:15:41.399Z,99148.97
2023-04-26T05:18:25.345Z,99156.53
2023-04-26T05:21:09.221Z,99146.53
2023-04-26T05:23:53.375Z,99158.88
2023-04-26T05:26:37.712Z,99159.03
2023-04-26T05:29:40.092Z,99161.75
2023-04-26T05:32:42.870Z,99161.34
2023-04-26T05:35:54.259Z,99128.84
2023-04-26T05:38:39.201Z,99155.91
2023-04-26T05:41:23.173Z,99155.38
2023-04-26T05:44:07.312Z,99136.03
2023-04-26T05:46:51.866Z,99177.91
2023-04-26T05:49:37.251Z,99163.69
2023-04-26T05:52:21.541Z,99165.28
2023-04-26T05:55:07.826Z,99184.34
2023-04-26T05:57:53.143Z,99180.50
2023-04-26T06:00:38.608Z,99188.72
2023-04-26T06:03:24.980Z,99187.53
2023-04-26T06:06:11.283Z,99186.78
2023-04-26T06:08:57.429Z,99167.75
2023-04-26T06:11:41.235Z,99180.19
2023-04-26T06:14:30.400Z,99198.31
2023-04-26T06:17:20.129Z,99198.38
2023-04-26T06:20:05.186Z,99201.78
2023-04-26T06:23:07.305Z,99176.72
2023-04-26T06:25:51.477Z,99202.09
2023-04-26T06:28:36.003Z,99198.78
2023-04-26T06:31:21.892Z,99198.00
2023-04-26T06:34:07.115Z,99200.50
2023-04-26T06:36:52.695Z,99203.19
2023-04-26T06:39:40.278Z,99199.53
2023-04-26T06:42:24.808Z,99199.06
2023-04-26T06:45:47.203Z,99185.16
2023-04-26T06:48:31.178Z,99209.91
2023-04-26T06:51:14.947Z,99203.28
2023-04-26T06:53:59.200Z,99186.44
2023-04-26T06:56:44.450Z,99208.84
2023-04-26T06:59:28.487Z,99200.03
2023-04-26T07:02:13.367Z,99207.75
2023-04-26T07:04:59.657Z,99204.25
2023-04-26T07:07:43.899Z,99210.56
2023-04-26T07:10:27.964Z,99209.72
2023-04-26T07:13:13.431Z,99171.97
2023-04-26T07:15:57.805Z,99207.13
2023-04-26T07:18:42.180Z,99202.25
2023-04-26T07:21:27.035Z,99204.25
2023-04-26T07:24:11.163Z,99177.03
2023-04-26T07:26:55.472Z,99224.75
2023-04-26T07:29:41.109Z,99199.28
2023-04-26T07:32:25.162Z,99189.69
2023-04-26T07:35:16.288Z,99178.47
2023-04-26T07:38:00.661Z,99213.47
2023-04-26T07:40:45.164Z,99180.81
2023-04-26T07:43:29.441Z,99178.38
2023-04-26T07:46:15.098Z,99206.19
2023-04-26T07:48:59.339Z,99174.75
2023-04-26T07:51:45.880Z,99175.09
2023-04-26T07:54:30.101Z,99195.41
2023-04-26T07:57:14.133Z,99208.78
2023-04-26T07:59:58.161Z,99179.66
2023-04-26T08:02:45.502Z,99178.75
2023-04-26T08:05:30.208Z,99211.69
2023-04-26T08:08:15.426Z,99210.75
2023-04-26T08:11:00.126Z,99177.94
2023-04-26T08:13:45.341Z,99219.72
2023-04-26T08:16:29.511Z,99210.66
2023-04-26T08:19:15.143Z,99174.44
2023-04-26T08:21:59.191Z,99195.50
2023-04-26T08:24:43.218Z,99210.16
2023-04-26T08:27:28.448Z,99201.72
2023-04-26T08:30:13.345Z,99144.91
2023-04-26T08:32:57.562Z,99163.13
2023-04-26T08:35:43.129Z,99211.88
2023-04-26T08:38:27.163Z,99203.16
2023-04-26T08:41:15.177Z,99173.13
2023-04-26T08:44:01.728Z,99184.41
2023-04-26T08:46:52.446Z,99218.31
2023-04-26T08:49:42.526Z,99200.53
2023-04-26T08:52:30.430Z,99178.63
2023-04-26T08:55:17.694Z,99169.63
2023-04-26T08:58:03.934Z,99214.19
2023-04-26T09:00:48.701Z,99189.09
2023-04-26T09:03:33.083Z,99180.16
2023-04-26T09:06:18.116Z,99194.63
2023-04-26T09:09:05.525Z,99206.69
2023-04-26T09:11:57.990Z,99174.16
2023-04-26T09:14:42.184Z,99188.00
2023-04-26T09:17:30.968Z,99169.44
2023-04-26T09:20:23.878Z,99202.03
2023-04-26T09:23:09.318Z,99160.84
2023-04-26T09:25:55.041Z,99206.19
2023-04-26T09:28:38.994Z,99164.31
2023-04-26T09:31:39.533Z,99173.34
2023-04-26T09:34:23.667Z,99211.59
2023-04-26T09:37:14.010Z,99215.66
2023-04-26T09:39:58.115Z,99188.19
2023-04-26T09:42:43.748Z,99179.63
2023-04-26T09:45:28.789Z,99182.34
2023-04-26T09:48:18.052Z,99202.59
2023-04-26T09:51:11.586Z,99184.59
2023-04-26T09:53:56.765Z,99175.19
2023-04-26T09:56:40.990Z,99167.16
2023-04-26T09:59:27.058Z,99180.75
2023-04-26T10:02:18.549Z,99162.16
2023-04-26T10:05:03.209Z,99180.56
2023-04-26T10:07:48.733Z,99197.75
2023-04-26T10:10:33.263Z,99191.44
2023-04-26T10:13:18.377Z,99197.63
2023-04-26T10:16:05.032Z,99199.84
2023-04-26T10:18:49.669Z,99199.50
2023-04-26T10:21:38.496Z,99167.84
2023-04-26T10:24:25.215Z,99150.91
2023-04-26T10:27:09.261Z,99187.41
2023-04-26T10:30:10.327Z,99196.06
2023-04-26T10:33:17.860Z,99187.59
2023-04-26T10:36:08.822Z,99186.44
2023-04-26T10:39:20.516Z,99188.13
2023-04-26T10:42:26.018Z,99189.13
2023-04-26T10:45:28.619Z,99162.72
2023-04-26T10:48:17.712Z,99199.50
2023-04-26T10:51:13.725Z,99160.53
2023-04-26T10:54:02.330Z,99181.47
2023-04-26T10:56:53.453Z,99188.91
2023-04-26T10:59:51.247Z,99188.16
2023-04-26T11:02:51.091Z,99184.59
2023-04-26T11:05:43.446Z,99181.44
2023-04-26T11:08:30.699Z,99157.44
2023-04-26T11:11:15.098Z,99193.16
2023-04-26T11:14:03.595Z,99159.09
2023-04-26T11:16:47.696Z,99188.97
2023-04-26T11:19:31.785Z,99162.13
2023-04-26T11:22:15.842Z,99170.44
2023-04-26T11:25:03.339Z,99195.63
2023-04-26T11:27:47.533Z,99191.13
2023-04-26T11:30:32.933Z,99173.13
2023-04-26T11:33:23.145Z,99193.16
2023-04-26T11:36:07.912Z,99191.88
2023-04-26T11:38:52.344Z,99153.97
2023-04-26T11:41:38.005Z,99188.47
2023-04-26T11:44:22.500Z,99124.63
2023-04-26T11:47:08.253Z,99157.31
2023-04-26T11:49:52.585Z,99188.03
2023-04-26T11:52:36.857Z,99178.56
2023-04-26T11:55:25.764Z,99150.91
2023-04-26T11:58:15.943Z,99175.25
2023-04-26T12:01:01.983Z,99150.72
2023-04-26T12:03:52.214Z,99104.78
2023-04-26T12:06:44.432Z,99154.41
2023-04-26T12:09:29.919Z,99142.69
2023-04-26T12:12:13.856Z,99165.81
2023-04-26T12:14:59.496Z,99169.13
2023-04-26T12:17:53.754Z,99131.94
2023-04-26T12:20:40.265Z,99166.16
2023-04-26T12:23:24.855Z,99129.97
2023-04-26T12:26:11.301Z,99135.41
2023-04-26T12:28:55.402Z,99143.97
2023-04-26T12:31:41.780Z,99164.66
2023-04-26T12:34:26.319Z,99159.09
2023-04-26T12:37:10.858Z,99133.88
2023-04-26T12:39:54.953Z,99141.91
2023-04-26T12:42:39.340Z,99162.41
2023-04-26T12:45:24.232Z,99149.97
2023-04-26T12:48:09.906Z,99154.50
2023-04-26T12:50:53.927Z,99137.25
2023-04-26T12:53:37.953Z,99125.78
2023-04-26T12:56:22.122Z,99109.47
2023-04-26T12:59:06.680Z,99108.13
2023-04-26T13:01:50.839Z,99099.44
2023-04-26T13:04:40.207Z,99134.63
2023-04-26T13:07:25.452Z,99126.56
2023-04-26T13:10:13.096Z,99122.72
2023-04-26T13:12:58.381Z,99128.31
2023-04-26T13:15:42.653Z,99102.75
2023-04-26T13:18:26.969Z,99115.84
2023-04-26T13:21:12.761Z,99105.50
2023-04-26T13:23:56.887Z,99095.38
2023-04-26T13:26:41.082Z,99120.25
2023-04-26T13:29:25.959Z,99122.25
2023-04-26T13:32:10.304Z,99122.06
2023-04-26T13:34:55.225Z,99122.28
2023-04-26T13:37:41.794Z,99080.56
2023-04-26T13:40:25.854Z,99122.78
2023-04-26T13:43:09.994Z,99119.78
2023-04-26T13:45:54.007Z,99118.16
2023-04-26T13:48:38.228Z,99093.66
2023-04-26T13:51:22.420Z,99120.72
2023-04-26T13:54:08.203Z,99103.91
2023-04-26T13:56:52.329Z,99120.81
2023-04-26T13:59:37.310Z,99125.34
2023-04-26T14:02:21.692Z,99130.91
2023-04-26T14:05:07.176Z,99104.56
2023-04-26T14:07:53.552Z,99097.38
2023-04-26T14:10:40.348Z,99101.41
2023-04-26T14:13:24.497Z,99136.84
2023-04-26T14:16:10.816Z,99104.34
2023-04-26T14:18:55.125Z,99100.66
2023-04-26T14:21:39.101Z,99043.88
2023-04-26T14:24:23.021Z,99091.13
2023-04-26T14:27:08.412Z,99119.00
2023-04-26T14:29:52.547Z,99152.22
2023-04-26T14:32:36.767Z,99125.22
2023-04-26T14:35:21.003Z,99144.06
2023-04-26T14:38:05.095Z,99131.19
2023-04-26T14:40:49.186Z,99095.84
2023-04-26T14:43:35.074Z,99150.84
2023-04-26T14:46:19.268Z,99128.50
2023-04-26T14:49:03.364Z,99151.94
2023-04-26T14:51:47.486Z,99152.38
2023-04-26T14:54:31.619Z,99156.59
2023-04-26T14:57:16.005Z,99120.94
2023-04-26T15:00:07.138Z,99129.63
2023-04-26T15:02:52.365Z,99120.66
2023-04-26T15:05:36.643Z,99154.78
2023-04-26T15:08:21.582Z,99111.84
2023-04-26T15:11:06.144Z,99127.47
2023-04-26T15:13:50.534Z,99112.41
2023-04-26T15:16:36.459Z,99151.53
2023-04-26T15:19:21.223Z,99159.72
2023-04-26T15:22:06.125Z,99175.59
2023-04-26T15:24:51.269Z,99175.66
2023-04-26T15:27:40.030Z,99118.69
2023-04-26T15:30:24.310Z,99160.66
2023-04-26T15:33:13.080Z,99170.22
2023-04-26T15:35:57.459Z,99161.84
2023-04-26T15:38:45.281Z,99161.31
2023-04-26T15:41:30.146Z,99186.00
2023-04-26T15:44:14.787Z,99147.59
2023-04-26T15:46:59.325Z,99172.38
2023-04-26T15:49:45.044Z,99186.69
2023-04-26T15:52:29.089Z,99159.94
2023-04-26T15:55:13.481Z,99168.47
2023-04-26T15:57:57.710Z,99145.81
2023-04-26T16:00:42.132Z,99152.13
2023-04-26T16:03:26.730Z,99113.00
2023-04-26T16:06:12.650Z,99149.34
2023-04-26T16:08:57.158Z,99181.69
2023-04-26T16:11:41.265Z,99160.13
2023-04-26T16:14:25.378Z,99155.59
2023-04-26T16:17:09.670Z,99156.84
2023-04-26T16:19:53.693Z,99190.09
2023-04-26T16:22:39.355Z,99202.44
2023-04-26T16:25:23.690Z,99175.47
2023-04-26T16:28:10.062Z,99203.91
2023-04-26T16:30:56.068Z,99231.38
2023-04-26T16:33:40.129Z,99230.41
2023-04-26T16:36:25.212Z,99202.13
2023-04-26T16:39:14.153Z,99185.31
2023-04-26T16:41:59.759Z,99189.28
2023-04-26T16:44:43.934Z,99244.88
2023-04-26T16:47:28.075Z,99235.94
2023-04-26T16:50:12.704Z,99206.03
2023-04-26T16:52:56.886Z,99237.16
2023-04-26T16:55:42.303Z,99255.47
2023-04-26T16:58:27.104Z,99230.69
2023-04-26T17:01:11.116Z,99255.34
2023-04-26T17:03:55.482Z,99264.75
2023-04-26T17:06:39.765Z,99264.00
2023-04-26T17:09:23.807Z,99232.28
2023-04-26T17:12:09.680Z,99241.25
2023-04-26T17:14:53.609Z,99245.22
2023-04-26T17:17:37.672Z,99241.00
2023-04-26T17:20:22.154Z,99254.22
2023-04-26T17:23:08.140Z,99243.34
2023-04-26T17:25:54.374Z,99290.34
2023-04-26T17:28:41.728Z,99252.56
2023-04-26T17:31:25.857Z,99260.53
2023-04-26T17:34:10.165Z,99259.16
2023-04-26T17:36:54.225Z,99301.81
2023-04-26T17:39:38.479Z,99243.44
2023-04-26T17:42:22.562Z,99294.28
2023-04-26T17:45:10.356Z,99275.16
2023-04-26T17:47:56.251Z,99306.47
2023-04-26T17:50:40.331Z,99275.91
2023-04-26T17:53:24.586Z,99306.72
2023-04-26T17:56:10.090Z,99289.91
2023-04-26T17:58:54.208Z,99308.28
2023-04-26T18:01:39.749Z,99251.28
2023-04-26T18:04:24.293Z,99308.75
2023-04-26T18:07:08.406Z,99265.91
2023-04-26T18:09:52.657Z,99320.16
2023-04-26T18:12:36.850Z,99279.66
2023-04-26T18:15:20.943Z,99299.16
2023-04-26T18:18:08.289Z,99289.41
2023-04-26T18:20:52.465Z,99282.53
2023-04-26T18:23:36.439Z,99292.34
2023-04-26T18:26:20.616Z,99324.94
2023-04-26T18:29:04.656Z,99268.03
2023-04-26T18:31:49.742Z,99328.53
2023-04-26T18:34:35.394Z,99326.34
2023-04-26T18:37:20.393Z,99303.84
2023-04-26T18:40:05.199Z,99332.63
2023-04-26T18:42:49.443Z,99341.44
2023-04-26T18:45:34.331Z,99325.63
2023-04-26T18:48:18.428Z,99302.16
2023-04-26T18:51:04.049Z,99303.50
2023-04-26T18:53:48.297Z,99336.66
2023-04-26T18:56:32.931Z,99289.41
2023-04-26T18:59:16.938Z,99335.13
2023-04-26T19:02:01.786Z,99311.38
2023-04-26T19:04:48.175Z,99335.97
2023-04-26T19:07:35.585Z,99305.56
2023-04-26T19:10:19.758Z,99304.00
2023-04-26T19:13:05.034Z,99302.47
2023-04-26T19:15:49.421Z,99342.13
2023-04-26T19:18:33.717Z,99303.44
2023-04-26T19:21:17.944Z,99341.88
2023-04-26T19:24:04.618Z,99309.03
2023-04-26T19:26:48.844Z,99332.28
2023-04-26T19:29:32.867Z,99304.78
2023-04-26T19:32:19.259Z,99347.25
2023-04-26T19:35:05.119Z,99305.06
2023-04-26T19:37:49.455Z,99341.41
2023-04-26T19:40:35.109Z,99346.63
2023-04-26T19:43:19.393Z,99346.09
2023-04-26T19:46:03.661Z,99344.00
2023-04-26T19:48:47.948Z,99313.91
2023-04-26T19:51:32.322Z,99314.38
2023-04-26T19:54:21.160Z,99344.41
2023-04-26T19:57:06.900Z,99347.56
2023-04-26T19:59:51.255Z,99348.53
2023-04-26T20:02:35.695Z,99310.19
2023-04-26T20:05:20.374Z,99331.66
2023-04-26T20:08:04.565Z,99346.84
2023-04-26T20:10:48.797Z,99364.06
2023-04-26T20:13:34.492Z,99404.88
2023-04-26T20:16:19.178Z,99368.78
2023-04-26T20:19:03.649Z,99332.06
2023-04-26T20:21:47.880Z,99353.47
2023-04-26T20:24:32.054Z,99358.22
2023-04-26T20:27:16.536Z,99400.56
2023-04-26T20:30:02.411Z,99351.88
2023-04-26T20:32:48.338Z,99367.22
2023-04-26T20:35:32.545Z,99359.94
2023-04-26T20:38:16.836Z,99407.13
2023-04-26T20:41:01.133Z,99400.22
2023-04-26T20:43:45.229Z,99366.56
2023-04-26T20:46:31.020Z,99393.50
2023-04-26T20:49:15.964Z,99368.72
2023-04-26T20:52:00.103Z,99377.06
2023-04-26T20:54:44.312Z,99342.38
2023-04-26T20:57:28.467Z,99412.88
2023-04-26T21:00:13.374Z,99424.47
2023-04-26T21:02:59.078Z,99432.63
2023-04-26T21:05:43.210Z,99389.13
2023-04-26T21:08:27.278Z,99406.06
2023-04-26T21:11:11.265Z,99394.41
2023-04-26T21:13:55.309Z,99438.09
2023-04-26T21:16:39.426Z,99393.69
2023-04-26T21:19:24.917Z,99407.94
2023-04-26T21:22:09.738Z,99406.78
2023-04-26T21:24:53.852Z,99455.50
2023-04-26T21:27:37.940Z,99461.13
2023-04-26T21:30:22.088Z,99457.06
2023-04-26T21:33:07.515Z,99420.56
2023-04-26T21:35:52.938Z,99448.53
2023-04-26T21:38:37.034Z,99457.38
2023-04-26T21:41:21.090Z,99440.75
2023-04-26T21:44:05.116Z,99495.47
2023-04-26T21:46:49.179Z,99499.50
2023-04-26T21:49:33.248Z,99437.25
2023-04-26T21:52:18.980Z,99500.03
2023-04-26T21:55:03.848Z,99517.19
2023-04-26T21:57:47.916Z,99520.47
2023-04-26T22:00:31.914Z,99468.06
2023-04-26T22:03:16.633Z,99412.34
2023-04-26T22:06:00.659Z,99468.16
2023-04-26T22:08:46.240Z,99475.13
2023-04-26T22:11:30.241Z,99451.84
2023-04-26T22:14:14.251Z,99489.66
2023-04-26T22:16:58.267Z,99510.13
2023-04-26T22:19:42.295Z,99505.75
2023-04-26T22:22:26.387Z,99497.47
2023-04-26T22:25:12.089Z,99485.47
2023-04-26T22:27:56.144Z,99486.72
2023-04-26T22:30:40.093Z,99521.66
2023-04-26T22:33:24.202Z,99511.38
2023-04-26T23:05:55.562Z,99468.41
2023-04-26T23:08:39.538Z,99521.28
2023-04-26T23:11:23.546Z,99519.72
2023-04-26T23:14:07.726Z,99466.56
2023-04-26T23:16:52.277Z,99488.97
2023-04-26T23:19:36.731Z,99528.22
2023-04-26T23:22:22.429Z,99510.03
2023-04-26T23:25:07.350Z,99467.59
2023-04-26T23:27:51.310Z,99545.41
2023-04-26T23:30:36.052Z,99531.66
2023-04-26T23:33:20.145Z,99458.38
2023-04-26T23:36:04.324Z,99506.22
2023-04-26T23:38:49.688Z,99512.38
2023-04-26T23:41:33.840Z,99502.16
2023-04-26T23:44:17.922Z,99506.84
2023-04-26T23:47:02.104Z,99509.47
2023-04-26T23:49:46.317Z,99500.91
2023-04-26T23:52:30.239Z,99542.03
2023-04-26T23:55:15.579Z,99482.97
2023-04-26T23:57:59.587Z,99517.81
